createdAt,value
2019-04-11T00:01:56.310Z,6.67
2019-04-11T00:04:26.201Z,5.50
2019-04-11T00:06:56.121Z,6.83
2019-04-11T00:09:26.920Z,6.77
2019-04-11T00:11:57.928Z,5.80
2019-04-11T00:14:27.603Z,6.90
2019-04-11T00:16:58.737Z,7.73
2019-04-11T00:19:29.401Z,7.47
2019-04-11T00:21:59.441Z,7.20
2019-04-11T00:24:29.273Z,6.40
2019-04-11T00:27:00.369Z,6.93
2019-04-11T00:29:30.275Z,6.43
2019-04-11T00:32:01.122Z,7.20
2019-04-11T00:34:31.112Z,6.90
2019-04-11T00:37:01.000Z,6.93
2019-04-11T00:39:31.862Z,7.43
2019-04-11T00:42:02.050Z,9.03
2019-04-11T00:44:32.769Z,6.90
2019-04-11T00:47:02.389Z,7.40
2019-04-11T00:49:32.587Z,7.67
2019-04-11T00:52:02.665Z,7.77
2019-04-11T00:54:33.160Z,7.47
2019-04-11T00:57:02.873Z,7.90
2019-04-11T00:59:32.514Z,8.03
2019-04-11T01:02:02.243Z,8.23
2019-04-11T01:04:32.733Z,8.57
2019-04-11T01:07:02.758Z,7.87
2019-04-11T01:09:32.673Z,7.23
2019-04-11T01:12:02.597Z,7.63
2019-04-11T01:14:32.196Z,7.50
2019-04-11T01:17:01.764Z,7.93
2019-04-11T01:19:31.347Z,6.40
2019-04-11T01:22:01.269Z,6.37
2019-04-11T01:24:31.523Z,7.13
2019-04-11T01:27:01.570Z,7.17
2019-04-11T01:29:31.407Z,7.23
2019-04-11T01:32:06.484Z,7.47
2019-04-11T01:34:37.128Z,7.47
2019-04-11T01:37:07.225Z,7.27
2019-04-11T01:39:41.242Z,8.00
2019-04-11T01:42:11.183Z,7.37
2019-04-11T01:44:41.001Z,7.17
2019-04-11T01:47:12.957Z,8.60
2019-04-11T01:49:42.684Z,7.43
2019-04-11T01:52:12.667Z,7.10
2019-04-11T01:54:42.275Z,6.67
2019-04-11T01:57:11.858Z,7.23
2019-04-11T01:59:41.758Z,7.17
2019-04-11T02:02:28.899Z,7.77
2019-04-11T02:05:00.769Z,7.00
2019-04-11T02:07:30.985Z,7.67
2019-04-11T02:10:00.714Z,7.87
2019-04-11T02:12:31.024Z,6.63
2019-04-11T02:15:00.818Z,8.30
2019-04-11T02:20:02.776Z,7.63
2019-04-11T02:22:49.215Z,7.37
2019-04-11T02:25:38.704Z,7.90
2019-04-11T02:28:10.626Z,7.50
2019-04-11T02:30:43.674Z,7.10
2019-04-11T02:33:15.327Z,7.27
2019-04-11T02:35:47.081Z,7.30
2019-04-11T02:38:16.583Z,7.23
2019-04-11T02:40:47.977Z,6.47
2019-04-11T02:43:18.051Z,6.60
2019-04-11T02:46:00.081Z,6.07
2019-04-11T02:48:20.655Z,5.73
2019-04-11T02:50:51.164Z,5.67
2019-04-11T02:53:22.085Z,6.10
2019-04-11T02:55:54.115Z,5.97
2019-04-11T02:58:25.541Z,6.17
2019-04-11T03:00:58.892Z,6.23
2019-04-11T03:03:27.477Z,5.97
2019-04-11T03:05:58.123Z,6.77
2019-04-11T03:08:31.788Z,6.30
2019-04-11T03:11:01.798Z,5.53
2019-04-11T03:13:33.441Z,6.77
2019-04-11T03:16:19.009Z,5.50
2019-04-11T03:18:53.197Z,6.43
2019-04-11T03:21:13.726Z,5.53
2019-04-11T03:23:39.744Z,6.27
2019-04-11T03:26:12.365Z,5.40
2019-04-11T03:28:46.262Z,5.93
2019-04-11T03:31:59.134Z,5.67
2019-04-11T03:39:12.010Z,6.47
2019-04-11T03:41:32.523Z,6.37
2019-04-11T03:44:00.392Z,5.93
2019-04-11T03:46:40.412Z,6.10
2019-04-11T03:49:03.903Z,5.57
2019-04-11T03:51:27.677Z,5.77
2019-04-11T03:53:59.167Z,5.73
2019-04-11T03:56:30.425Z,5.87
2019-04-11T03:59:01.416Z,5.73
2019-04-11T04:01:32.038Z,5.37
2019-04-11T04:04:02.800Z,6.00
2019-04-11T04:06:33.575Z,6.03
2019-04-11T04:09:04.255Z,6.10
2019-04-11T04:11:35.381Z,6.00
2019-04-11T04:14:08.142Z,6.87
2019-04-11T04:16:47.847Z,6.33
2019-04-11T04:19:25.118Z,6.53
2019-04-11T04:21:57.583Z,6.33
2019-04-11T04:24:34.169Z,5.83
2019-04-11T04:27:02.247Z,6.37
2019-04-11T04:29:36.338Z,5.87
2019-04-11T04:32:06.033Z,6.50
2019-04-11T04:34:36.759Z,6.67
2019-04-11T04:37:07.835Z,5.87
2019-04-11T04:39:39.760Z,6.77
2019-04-11T04:42:21.210Z,6.33
2019-04-11T04:44:42.867Z,5.93
2019-04-11T04:47:21.118Z,6.67
2019-04-11T04:49:45.876Z,6.10
2019-04-11T04:52:16.416Z,6.20
2019-04-11T04:54:46.533Z,6.00
2019-04-11T04:57:18.266Z,6.47
2019-04-11T04:59:48.979Z,5.60
2019-04-11T05:02:20.514Z,6.50
2019-04-11T05:04:49.818Z,6.13
2019-04-11T05:07:19.551Z,6.07
2019-04-11T05:09:50.373Z,5.83
2019-04-11T05:12:20.626Z,6.13
2019-04-11T05:14:51.781Z,5.60
2019-04-11T05:17:23.100Z,5.80
2019-04-11T05:19:52.895Z,5.70
2019-04-11T05:22:22.564Z,6.90
2019-04-11T05:24:52.413Z,7.07
2019-04-11T05:27:22.943Z,6.53
2019-04-11T05:29:53.558Z,6.27
2019-04-11T05:32:23.963Z,6.93
2019-04-11T05:34:54.427Z,6.20
2019-04-11T05:37:24.030Z,7.17
2019-04-11T05:39:53.895Z,6.60
2019-04-11T05:42:26.710Z,6.30
2019-04-11T05:44:54.884Z,7.23
2019-04-11T05:47:25.593Z,7.63
2019-04-11T05:49:59.095Z,7.80
2019-04-11T05:52:31.919Z,6.93
2019-04-11T05:55:02.820Z,7.60
2019-04-11T05:57:35.816Z,6.97
2019-04-11T06:00:08.168Z,6.13
2019-04-11T06:02:39.554Z,6.67
2019-04-11T06:05:23.826Z,7.27
2019-04-11T06:07:57.594Z,6.13
2019-04-11T06:10:28.345Z,7.00
2019-04-11T06:13:12.552Z,6.03
2019-04-11T06:15:47.232Z,7.33
2019-04-11T06:18:32.493Z,6.87
2019-04-11T06:21:02.561Z,7.07
2019-04-11T06:23:45.575Z,6.73
2019-04-11T06:26:18.745Z,6.83
2019-04-11T06:28:52.863Z,6.73
2019-04-11T06:31:42.256Z,7.50
2019-04-11T06:34:11.944Z,7.30
2019-04-11T06:36:56.910Z,7.13
2019-04-11T06:39:27.401Z,6.60
2019-04-11T06:42:09.271Z,6.70
2019-04-11T06:44:50.609Z,8.63
2019-04-11T06:47:38.472Z,7.60
2019-04-11T06:50:09.093Z,8.23
2019-04-11T06:52:41.679Z,6.97
2019-04-11T06:55:30.752Z,7.07
2019-04-11T06:58:08.040Z,7.37
2019-04-11T07:00:41.014Z,7.27
2019-04-11T07:03:19.607Z,8.03
2019-04-11T07:05:44.844Z,7.60
2019-04-11T07:08:16.160Z,7.30
2019-04-11T07:10:47.371Z,7.10
2019-04-11T07:13:18.681Z,8.40
2019-04-11T07:15:49.253Z,6.77
2019-04-11T07:18:37.724Z,7.83
2019-04-11T07:21:10.513Z,8.07
2019-04-11T07:23:59.660Z,7.73
2019-04-11T07:26:35.241Z,7.60
2019-04-11T07:29:21.554Z,7.40
2019-04-11T07:32:00.794Z,8.23
2019-04-11T07:34:48.338Z,8.00
2019-04-11T07:37:32.619Z,8.17
2019-04-11T07:40:15.564Z,8.13
2019-04-11T07:42:53.317Z,8.80
2019-04-11T07:45:41.684Z,8.20
2019-04-11T07:48:13.516Z,8.13
2019-04-11T07:50:44.399Z,7.93
2019-04-11T07:53:15.599Z,8.40
2019-04-11T07:55:46.600Z,8.23
2019-04-11T07:58:26.817Z,9.23
2019-04-11T08:01:01.637Z,7.63
2019-04-11T08:03:35.944Z,8.53
2019-04-11T08:06:07.568Z,9.17
2019-04-11T08:08:47.433Z,8.27
2019-04-11T08:11:21.263Z,9.87
2019-04-11T08:13:56.039Z,9.63
2019-04-11T08:16:27.325Z,9.27
2019-04-11T08:19:15.358Z,10.07
2019-04-11T08:22:03.097Z,10.00
2019-04-11T08:24:40.653Z,9.23
2019-04-11T08:27:30.179Z,9.37
2019-04-11T08:30:02.688Z,9.70
2019-04-11T08:32:44.148Z,9.00
2019-04-11T08:35:28.362Z,8.50
2019-04-11T08:38:01.008Z,8.90
2019-04-11T08:40:35.750Z,8.73
2019-04-11T08:43:08.196Z,9.40
2019-04-11T08:45:49.124Z,8.60
2019-04-11T08:48:19.306Z,8.60
2019-04-11T08:50:50.578Z,9.33
2019-04-11T08:53:20.659Z,8.97
2019-04-11T08:55:57.172Z,7.93
2019-04-11T08:58:28.900Z,8.60
2019-04-11T09:01:00.738Z,8.53
2019-04-11T09:03:42.019Z,8.73
2019-04-11T09:06:14.723Z,8.43
2019-04-11T09:08:50.970Z,8.30
2019-04-11T09:11:22.705Z,8.27
2019-04-11T09:14:10.175Z,7.87
2019-04-11T09:16:47.901Z,8.73
2019-04-11T09:19:35.336Z,7.97
2019-04-11T09:22:17.760Z,8.13
2019-04-11T09:24:58.933Z,7.17
2019-04-11T09:27:47.017Z,8.97
2019-04-11T09:30:35.036Z,8.77
2019-04-11T09:33:14.953Z,7.17
2019-04-11T09:35:57.570Z,8.00
2019-04-11T09:38:28.901Z,8.70
2019-04-11T09:41:09.155Z,8.90
2019-04-11T09:43:40.427Z,8.17
2019-04-11T09:46:12.526Z,8.17
2019-04-11T09:48:42.244Z,9.17
2019-04-11T09:51:17.825Z,8.57
2019-04-11T09:53:49.203Z,8.67
2019-04-11T09:56:36.755Z,8.70
2019-04-11T09:59:09.016Z,8.57
2019-04-11T10:01:56.137Z,8.37
2019-04-11T10:04:28.266Z,9.17
2019-04-11T10:07:01.896Z,8.43
2019-04-11T10:09:52.633Z,8.13
2019-04-11T10:12:38.289Z,9.17
2019-04-11T10:15:13.418Z,8.50
2019-04-11T10:17:44.919Z,7.70
2019-04-11T10:20:16.260Z,7.70
2019-04-11T10:23:05.255Z,8.50
2019-04-11T10:25:37.229Z,8.67
2019-04-11T10:28:09.224Z,8.33
2019-04-11T10:30:57.874Z,8.00
2019-04-11T10:33:33.119Z,8.93
2019-04-11T10:36:07.591Z,7.43
2019-04-11T10:38:39.054Z,8.03
2019-04-11T10:41:26.387Z,8.47
2019-04-11T10:43:57.159Z,6.77
2019-04-11T10:46:34.102Z,8.73
2019-04-11T10:49:05.423Z,8.17
2019-04-11T10:51:39.773Z,7.57
2019-04-11T10:54:11.423Z,7.97
2019-04-11T10:56:47.560Z,7.53
2019-04-11T10:59:17.566Z,7.90
2019-04-11T11:01:48.569Z,8.30
2019-04-11T11:04:23.450Z,7.33
2019-04-11T11:06:55.888Z,8.37
2019-04-11T11:09:37.230Z,7.87
2019-04-11T11:12:25.419Z,7.80
2019-04-11T11:15:11.962Z,7.00
2019-04-11T11:18:12.650Z,8.03
2019-04-11T11:20:38.549Z,8.20
2019-04-11T11:23:08.077Z,6.93
2019-04-11T11:25:39.247Z,7.90
2019-04-11T11:28:09.557Z,8.17
2019-04-11T11:30:47.389Z,8.23
2019-04-11T11:33:20.250Z,8.70
2019-04-11T11:35:50.045Z,7.93
2019-04-11T11:38:28.148Z,7.77
2019-04-11T11:41:18.474Z,8.30
2019-04-11T11:43:50.016Z,8.53
2019-04-11T11:46:25.688Z,8.23
2019-04-11T11:48:54.409Z,8.17
2019-04-11T11:51:31.171Z,7.50
2019-04-11T11:54:11.614Z,7.93
2019-04-11T11:56:44.358Z,8.00
2019-04-11T11:59:30.165Z,7.90
2019-04-11T12:02:00.840Z,8.67
2019-04-11T12:04:48.589Z,9.07
2019-04-11T12:07:20.968Z,8.77
2019-04-11T12:10:09.091Z,9.13
2019-04-11T12:12:40.302Z,8.73
2019-04-11T12:15:22.496Z,7.97
2019-04-11T12:18:13.043Z,8.40
2019-04-11T12:20:59.067Z,8.53
2019-04-11T12:23:42.820Z,7.13
2019-04-11T12:26:05.321Z,8.90
2019-04-11T12:28:41.552Z,8.63
2019-04-11T12:31:11.698Z,7.73
2019-04-11T12:33:59.751Z,8.30
2019-04-11T12:36:31.191Z,8.30
2019-04-11T12:39:10.231Z,8.37
2019-04-11T12:41:41.435Z,7.67
2019-04-11T12:44:29.459Z,8.57
2019-04-11T12:47:17.150Z,8.10
2019-04-11T12:49:52.793Z,7.87
2019-04-11T12:52:31.496Z,8.33
2019-04-11T12:55:03.227Z,9.40
2019-04-11T12:57:49.720Z,8.33
2019-04-11T13:00:19.279Z,8.27
2019-04-11T13:03:00.583Z,8.53
2019-04-11T13:05:35.124Z,8.73
2019-04-11T13:08:22.695Z,8.80
2019-04-11T13:10:52.279Z,10.07
2019-04-11T13:13:23.479Z,8.90
2019-04-11T13:15:55.255Z,9.03
2019-04-11T13:18:42.484Z,9.50
2019-04-11T13:21:19.305Z,8.00
2019-04-11T13:23:54.241Z,8.00
2019-04-11T13:26:42.100Z,7.93
2019-04-11T13:29:13.682Z,8.63
2019-04-11T13:31:45.686Z,8.67
2019-04-11T13:34:19.637Z,8.63
2019-04-11T13:37:02.575Z,8.13
2019-04-11T13:39:32.695Z,7.60
2019-04-11T13:42:19.561Z,7.77
2019-04-11T13:44:49.190Z,9.00
2019-04-11T13:47:25.367Z,8.50
2019-04-11T13:49:56.666Z,7.90
2019-04-11T13:52:39.620Z,8.63
2019-04-11T13:55:11.478Z,8.90
2019-04-11T13:57:58.746Z,8.23
2019-04-11T14:00:39.424Z,8.07
2019-04-11T14:03:10.680Z,8.40
2019-04-11T14:05:41.878Z,7.83
2019-04-11T14:08:13.100Z,8.80
2019-04-11T14:10:59.750Z,8.83
2019-04-11T14:13:35.363Z,7.70
2019-04-11T14:16:21.702Z,8.07
2019-04-11T14:19:07.037Z,8.73
2019-04-11T14:21:37.273Z,8.33
2019-04-11T14:24:17.144Z,9.87
2019-04-11T14:26:48.540Z,8.70
2019-04-11T14:29:22.175Z,8.53
2019-04-11T14:31:54.545Z,8.67
2019-04-11T14:34:25.884Z,8.87
2019-04-11T14:37:12.995Z,8.53
2019-04-11T14:39:49.929Z,8.40
2019-04-11T14:42:23.803Z,9.63
2019-04-11T14:44:55.226Z,9.20
2019-04-11T14:47:39.002Z,9.77
2019-04-11T14:50:11.216Z,9.30
2019-04-11T14:52:47.211Z,8.47
2019-04-11T14:55:19.006Z,9.80
2019-04-11T14:57:54.423Z,11.13
2019-04-11T15:00:26.055Z,9.63
2019-04-11T15:03:03.114Z,8.00
2019-04-11T15:05:49.600Z,8.83
2019-04-11T15:08:33.107Z,7.83
2019-04-11T15:11:13.878Z,8.40
2019-04-11T15:13:48.013Z,7.70
2019-04-11T15:16:24.611Z,8.40
2019-04-11T15:18:55.851Z,7.63
2019-04-11T15:21:27.046Z,8.07
2019-04-11T15:23:56.815Z,8.43
2019-04-11T15:26:27.997Z,10.07
2019-04-11T15:28:59.261Z,7.37
2019-04-11T15:31:39.857Z,8.03
2019-04-11T15:34:11.153Z,7.83
2019-04-11T15:36:42.358Z,10.13
2019-04-11T15:39:30.158Z,8.80
2019-04-11T15:42:02.390Z,7.63
2019-04-11T15:44:49.335Z,8.13
2019-04-11T15:47:20.718Z,8.50
2019-04-11T15:50:08.135Z,7.63
2019-04-11T15:52:39.754Z,7.10
2019-04-11T15:55:13.660Z,6.90
2019-04-11T15:57:44.103Z,7.10
2019-04-11T16:00:19.957Z,7.13
2019-04-11T16:02:55.028Z,7.10
2019-04-11T16:05:42.475Z,7.80
2019-04-11T16:08:13.723Z,7.40
2019-04-11T16:11:02.952Z,6.47
2019-04-11T16:13:49.775Z,8.37
2019-04-11T16:16:21.024Z,8.13
2019-04-11T16:19:01.814Z,7.10
2019-04-11T16:21:36.824Z,7.60
2019-04-11T16:24:11.167Z,6.37
2019-04-11T16:26:42.373Z,8.40
2019-04-11T16:29:29.541Z,6.73
2019-04-11T16:32:00.829Z,7.10
2019-04-11T16:34:48.566Z,6.97
2019-04-11T16:37:19.063Z,7.03
2019-04-11T16:40:02.476Z,6.77
2019-04-11T16:42:33.659Z,8.17
2019-04-11T16:45:05.311Z,6.57
2019-04-11T16:47:36.562Z,7.47
2019-04-11T16:50:06.824Z,6.57
2019-04-11T16:52:38.518Z,6.57
2019-04-11T16:55:10.034Z,6.57
2019-04-11T16:57:43.899Z,6.70
2019-04-11T17:00:13.617Z,7.10
2019-04-11T17:02:43.180Z,6.77
2019-04-11T17:05:12.917Z,7.20
2019-04-11T17:08:00.057Z,7.77
2019-04-11T17:10:47.482Z,7.13
2019-04-11T17:13:17.373Z,7.50
2019-04-11T17:15:46.924Z,7.30
2019-04-11T17:18:18.863Z,6.50
2019-04-11T17:20:47.780Z,6.90
2019-04-11T17:23:17.823Z,6.67
2019-04-11T17:25:52.468Z,6.90
2019-04-11T17:28:22.766Z,7.57
2019-04-11T17:30:50.080Z,6.80
2019-04-11T17:33:20.028Z,6.97
2019-04-11T17:35:49.674Z,6.93
2019-04-11T17:38:19.251Z,6.97
2019-04-11T17:40:48.883Z,6.10
2019-04-11T17:43:18.410Z,6.63
2019-04-11T17:45:47.954Z,7.00
2019-04-11T17:48:17.618Z,6.60
2019-04-11T17:50:47.180Z,6.57
2019-04-11T17:53:16.730Z,7.27
2019-04-11T17:55:48.058Z,6.30
2019-04-11T17:58:17.863Z,6.50
2019-04-11T18:00:55.103Z,7.47
2019-04-11T18:03:24.924Z,6.53
2019-04-11T18:06:03.703Z,7.03
2019-04-11T18:08:33.302Z,7.40
2019-04-11T18:11:02.890Z,7.10
2019-04-11T18:13:32.712Z,6.53
2019-04-11T18:16:02.331Z,7.00
2019-04-11T18:18:34.863Z,7.43
2019-04-11T18:21:06.982Z,7.47
2019-04-11T18:23:35.938Z,7.20
2019-04-11T18:26:05.976Z,6.33
2019-04-11T18:28:35.681Z,6.77
2019-04-11T18:31:05.289Z,6.53
2019-04-11T18:33:34.917Z,6.70
2019-04-11T18:36:04.638Z,6.90
2019-04-11T18:38:34.261Z,6.93
2019-04-11T18:41:03.813Z,7.20
2019-04-11T18:43:33.416Z,7.00
2019-04-11T18:46:02.942Z,6.73
2019-04-11T18:48:32.502Z,6.63
2019-04-11T18:51:02.075Z,6.97
2019-04-11T18:53:31.637Z,6.93
2019-04-11T18:56:01.729Z,7.47
2019-04-11T18:58:33.692Z,7.37
2019-04-11T19:01:03.426Z,8.40
2019-04-11T19:03:36.303Z,6.70
2019-04-11T19:06:04.602Z,6.90
2019-04-11T19:08:34.313Z,6.47
2019-04-11T19:11:04.239Z,6.53
2019-04-11T19:13:34.115Z,6.90
2019-04-11T19:16:03.642Z,7.17
2019-04-11T19:18:33.213Z,6.63
2019-04-11T19:21:03.854Z,6.67
2019-04-11T19:23:33.669Z,6.50
2019-04-11T19:26:03.291Z,6.17
2019-04-11T19:28:32.914Z,6.43
2019-04-11T19:31:02.543Z,6.40
2019-04-11T19:33:34.294Z,6.97
2019-04-11T19:36:03.711Z,6.43
2019-04-11T19:38:35.003Z,6.10
2019-04-11T19:41:04.639Z,5.97
2019-04-11T19:43:35.300Z,6.53
2019-04-11T19:46:05.243Z,6.90
2019-04-11T19:48:34.932Z,6.40
2019-04-11T19:51:04.485Z,6.67
2019-04-11T19:53:34.139Z,6.43
2019-04-11T19:56:05.915Z,6.93
2019-04-11T19:58:35.555Z,6.57
2019-04-11T20:01:05.236Z,7.10
2019-04-11T20:03:34.900Z,7.77
2019-04-11T20:06:04.475Z,7.80
2019-04-11T20:08:34.380Z,7.03
2019-04-11T20:11:04.143Z,7.20
2019-04-11T20:13:33.718Z,6.90
2019-04-11T20:16:03.342Z,7.77
2019-04-11T20:18:32.946Z,7.30
2019-04-11T20:21:07.319Z,7.37
2019-04-11T20:23:34.193Z,8.10
2019-04-11T20:26:03.783Z,6.53
2019-04-11T20:28:33.387Z,6.37
2019-04-11T20:31:02.959Z,6.73
2019-04-11T20:33:34.659Z,7.70
2019-04-11T20:36:03.763Z,7.00
2019-04-11T20:38:33.310Z,6.60
2019-04-11T20:41:03.126Z,6.73
2019-04-11T20:43:32.726Z,6.20
2019-04-11T20:46:03.156Z,6.50
2019-04-11T20:48:35.154Z,6.90
2019-04-11T20:51:04.012Z,7.00
2019-04-11T20:53:36.711Z,6.67
2019-04-11T20:56:04.910Z,7.30
2019-04-11T20:58:34.467Z,6.93
2019-04-11T21:01:04.753Z,6.53
2019-04-11T21:03:34.310Z,6.33
2019-04-11T21:06:04.879Z,5.83
2019-04-11T21:08:36.720Z,7.13
2019-04-11T21:11:05.820Z,6.37
2019-04-11T21:13:38.168Z,5.80
2019-04-11T21:16:06.629Z,6.43
2019-04-11T21:18:36.664Z,6.03
2019-04-11T21:21:06.704Z,6.60
2019-04-11T21:23:36.513Z,6.60
2019-04-11T21:26:06.248Z,5.97
2019-04-11T21:28:36.045Z,7.20
2019-04-11T21:31:05.700Z,6.60
2019-04-11T21:33:36.311Z,6.10
2019-04-11T21:36:06.294Z,6.60
2019-04-11T21:38:36.193Z,6.70
2019-04-11T21:41:06.673Z,7.00
2019-04-11T21:43:38.061Z,6.73
2019-04-11T21:46:08.380Z,6.77
2019-04-11T21:48:38.171Z,6.77
2019-04-11T21:51:11.379Z,6.80
2019-04-11T21:53:44.404Z,6.17
2019-04-11T21:56:11.931Z,6.27
2019-04-11T21:58:41.876Z,6.33
2019-04-11T22:01:15.240Z,6.80
2019-04-11T22:03:45.768Z,6.67
2019-04-11T22:06:15.692Z,6.63
2019-04-11T22:08:45.733Z,7.63
2019-04-11T22:11:15.545Z,7.13
2019-04-11T22:13:45.560Z,7.70
2019-04-11T22:16:15.574Z,7.07
2019-04-11T22:18:45.570Z,6.97
2019-04-11T22:21:15.529Z,7.07
2019-04-11T22:23:48.942Z,7.13
2019-04-11T22:26:17.773Z,7.43
2019-04-11T22:28:47.574Z,7.57
2019-04-11T22:31:17.373Z,7.80
2019-04-11T22:33:51.169Z,8.90
2019-04-11T22:36:22.498Z,6.97
2019-04-11T22:38:52.521Z,7.47
2019-04-11T22:41:22.074Z,8.47
2019-04-11T22:43:51.614Z,8.10
2019-04-11T22:46:21.257Z,7.30
2019-04-11T22:48:50.860Z,7.43
2019-04-11T22:51:20.451Z,8.10
2019-04-11T22:53:59.913Z,7.50
2019-04-11T22:56:21.545Z,7.60
2019-04-11T22:58:51.420Z,7.60
2019-04-11T23:01:20.986Z,8.07
2019-04-11T23:03:54.818Z,7.97
2019-04-11T23:06:24.314Z,7.43
2019-04-11T23:08:54.143Z,7.13
2019-04-11T23:11:23.674Z,7.13
2019-04-11T23:13:53.291Z,8.63
2019-04-11T23:16:23.038Z,8.30
2019-04-11T23:18:52.583Z,6.73
2019-04-11T23:21:22.166Z,7.63
2019-04-11T23:23:51.816Z,7.10
2019-04-11T23:26:21.487Z,7.00
2019-04-11T23:28:51.053Z,6.53
2019-04-11T23:31:21.099Z,6.30
2019-04-11T23:33:52.100Z,6.53
2019-04-11T23:36:22.191Z,6.97
2019-04-11T23:38:52.652Z,6.67
2019-04-11T23:41:23.130Z,6.57
2019-04-11T23:43:52.672Z,6.73
2019-04-11T23:46:22.202Z,6.00
2019-04-11T23:48:54.733Z,6.07
2019-04-11T23:51:26.232Z,6.47
2019-04-11T23:53:54.283Z,6.17
2019-04-11T23:56:23.905Z,6.03
2019-04-11T23:58:53.484Z,5.83
